createdAt,value
2022-09-12T00:01:21.826Z,18.23
2022-09-12T00:03:52.950Z,18.18
2022-09-12T00:06:26.987Z,18.09
2022-09-12T00:08:56.643Z,17.90
2022-09-12T00:11:24.287Z,17.76
2022-09-12T00:13:55.345Z,17.80
2022-09-12T00:16:24.753Z,17.75
2022-09-12T00:18:53.668Z,17.77
2022-09-12T00:21:22.402Z,17.81
2022-09-12T00:23:50.643Z,17.84
2022-09-12T00:26:19.046Z,17.71
2022-09-12T00:28:47.406Z,17.67
2022-09-12T00:31:18.104Z,17.44
2022-09-12T00:33:46.739Z,17.47
2022-09-12T00:36:17.695Z,17.40
2022-09-12T00:38:45.651Z,17.40
2022-09-12T00:41:24.097Z,17.45
2022-09-12T00:44:00.294Z,17.58
2022-09-12T00:46:48.710Z,17.39
2022-09-12T00:49:27.631Z,17.43
2022-09-12T00:52:04.123Z,17.50
2022-09-12T00:54:35.875Z,17.47
2022-09-12T00:57:06.349Z,17.48
2022-09-12T00:59:52.029Z,17.42
2022-09-12T01:02:19.499Z,17.36
2022-09-12T01:04:47.891Z,17.53
2022-09-12T01:07:15.691Z,17.66
2022-09-12T01:09:45.965Z,17.75
2022-09-12T01:12:17.489Z,17.73
2022-09-12T01:14:44.872Z,17.84
2022-09-12T01:17:14.897Z,17.88
2022-09-12T01:20:07.069Z,17.88
2022-09-12T01:23:03.590Z,17.78
2022-09-12T01:25:42.675Z,17.84
2022-09-12T01:28:40.845Z,17.73
2022-09-12T01:31:32.278Z,17.63
2022-09-12T01:34:10.402Z,17.61
2022-09-12T01:36:46.083Z,17.56
2022-09-12T01:39:25.647Z,17.47
2022-09-12T01:42:04.983Z,17.37
2022-09-12T01:44:38.959Z,17.40
2022-09-12T01:47:12.094Z,17.35
2022-09-12T01:49:48.426Z,17.45
2022-09-12T01:52:39.760Z,17.40
2022-09-12T01:55:18.404Z,17.50
2022-09-12T01:57:51.606Z,17.46
2022-09-12T02:00:19.579Z,17.54
2022-09-12T02:02:55.862Z,17.48
2022-09-12T02:06:06.516Z,17.29
2022-09-12T02:08:41.376Z,17.33
2022-09-12T02:11:11.831Z,17.37
2022-09-12T02:14:00.965Z,17.43
2022-09-12T02:16:36.704Z,17.26
2022-09-12T02:19:11.113Z,17.07
2022-09-12T02:21:42.172Z,17.07
2022-09-12T02:24:14.583Z,17.03
2022-09-12T02:26:51.362Z,17.05
2022-09-12T02:29:18.679Z,17.01
2022-09-12T02:31:55.231Z,17.04
2022-09-12T02:34:25.466Z,17.09
2022-09-12T02:37:13.682Z,17.13
2022-09-12T02:39:45.025Z,17.23
2022-09-12T02:42:13.461Z,17.38
2022-09-12T02:44:41.244Z,17.24
2022-09-12T02:47:18.364Z,17.23
2022-09-12T02:49:46.545Z,17.19
2022-09-12T02:52:13.806Z,17.05
2022-09-12T02:54:42.091Z,17.01
2022-09-12T02:57:21.915Z,17.00
2022-09-12T02:59:56.368Z,16.91
2022-09-12T03:02:57.023Z,16.87
2022-09-12T03:05:26.999Z,16.76
2022-09-12T03:08:05.850Z,16.74
2022-09-12T03:10:40.616Z,16.65
2022-09-12T03:13:35.601Z,16.62
2022-09-12T03:16:15.662Z,16.70
2022-09-12T03:19:01.648Z,16.63
2022-09-12T03:21:45.575Z,16.49
2022-09-12T03:24:25.855Z,16.44
2022-09-12T03:27:07.004Z,16.51
2022-09-12T03:29:35.815Z,16.41
2022-09-12T03:32:03.280Z,16.58
2022-09-12T03:34:30.687Z,16.64
2022-09-12T03:36:58.189Z,16.66
2022-09-12T03:39:26.876Z,16.64
2022-09-12T03:41:55.426Z,16.67
2022-09-12T03:44:23.001Z,16.71
2022-09-12T03:46:50.575Z,16.73
2022-09-12T03:49:17.938Z,16.72
2022-09-12T03:51:45.296Z,16.74
2022-09-12T03:54:12.626Z,16.80
2022-09-12T03:56:41.208Z,16.86
2022-09-12T03:59:08.866Z,16.80
2022-09-12T04:01:37.421Z,16.84
2022-09-12T04:04:04.721Z,16.88
2022-09-12T04:06:32.135Z,16.89
2022-09-12T04:08:59.411Z,16.95
2022-09-12T04:11:27.106Z,16.96
2022-09-12T04:13:54.366Z,17.07
2022-09-12T04:16:22.025Z,17.03
2022-09-12T04:18:49.355Z,17.05
2022-09-12T04:21:19.730Z,17.06
2022-09-12T04:23:47.619Z,17.11
2022-09-12T04:26:17.751Z,17.05
2022-09-12T04:28:46.469Z,16.92
2022-09-12T04:31:18.394Z,16.83
2022-09-12T04:33:46.519Z,16.83
2022-09-12T04:36:17.294Z,16.96
2022-09-12T04:38:46.742Z,16.93
2022-09-12T04:41:18.044Z,16.85
2022-09-12T04:43:46.581Z,16.82
2022-09-12T04:46:16.627Z,16.69
2022-09-12T04:48:44.059Z,16.44
2022-09-12T04:51:14.763Z,16.34
2022-09-12T04:53:42.951Z,16.28
2022-09-12T04:56:11.521Z,16.40
2022-09-12T04:58:38.894Z,16.38
2022-09-12T05:01:11.480Z,16.29
2022-09-12T05:03:39.867Z,16.31
2022-09-12T05:06:08.814Z,16.19
2022-09-12T05:08:36.906Z,16.06
2022-09-12T05:11:06.822Z,16.07
2022-09-12T05:13:35.335Z,16.11
2022-09-12T05:16:04.851Z,16.24
2022-09-12T05:18:33.903Z,16.33
2022-09-12T05:21:04.109Z,16.31
2022-09-12T05:23:31.768Z,16.41
2022-09-12T05:26:00.239Z,16.43
2022-09-12T05:28:38.351Z,16.54
2022-09-12T05:31:13.040Z,16.61
2022-09-12T05:33:42.743Z,16.58
2022-09-12T05:36:13.224Z,16.64
2022-09-12T05:38:40.779Z,16.62
2022-09-12T05:41:16.963Z,16.71
2022-09-12T05:43:46.715Z,16.77
2022-09-12T05:46:19.523Z,16.97
2022-09-12T05:48:51.465Z,17.22
2022-09-12T05:51:26.684Z,17.30
2022-09-12T05:53:56.822Z,17.39
2022-09-12T05:56:26.503Z,17.56
2022-09-12T05:58:56.340Z,17.56
2022-09-12T06:01:24.303Z,17.49
2022-09-12T06:03:54.351Z,17.46
2022-09-12T06:06:24.394Z,17.45
2022-09-12T06:08:52.885Z,17.43
2022-09-12T06:11:24.038Z,17.53
2022-09-12T06:13:52.219Z,17.62
2022-09-12T06:16:20.938Z,17.79
2022-09-12T06:18:52.257Z,17.99
2022-09-12T06:21:19.802Z,18.11
2022-09-12T06:23:47.975Z,18.20
2022-09-12T06:26:16.667Z,18.43
2022-09-12T06:28:47.532Z,18.61
2022-09-12T06:31:16.317Z,18.89
2022-09-12T06:33:44.371Z,18.86
2022-09-12T06:36:12.847Z,18.94
2022-09-12T06:38:40.713Z,18.93
2022-09-12T06:41:11.386Z,19.10
2022-09-12T06:43:40.245Z,19.22
2022-09-12T06:46:09.270Z,19.12
2022-09-12T06:48:41.138Z,19.21
2022-09-12T06:51:14.766Z,19.69
2022-09-12T06:53:44.305Z,19.97
2022-09-12T06:56:14.480Z,20.55
2022-09-12T06:58:43.021Z,20.82
2022-09-12T07:01:19.209Z,21.12
2022-09-12T07:03:55.788Z,21.31
2022-09-12T07:06:32.301Z,21.26
2022-09-12T07:09:01.536Z,21.17
2022-09-12T07:11:31.876Z,21.31
2022-09-12T07:14:01.337Z,21.63
2022-09-12T07:16:30.244Z,21.57
2022-09-12T07:19:02.625Z,21.06
2022-09-12T07:21:30.340Z,21.04
2022-09-12T07:23:58.243Z,20.83
2022-09-12T07:26:27.936Z,20.58
2022-09-12T07:29:03.924Z,20.83
2022-09-12T07:31:35.477Z,21.01
2022-09-12T07:34:06.211Z,20.86
2022-09-12T07:36:33.822Z,20.61
2022-09-12T07:39:01.604Z,20.79
2022-09-12T07:41:31.226Z,20.85
2022-09-12T07:44:00.278Z,21.22
2022-09-12T07:46:29.641Z,21.14
2022-09-12T07:48:58.586Z,21.25
2022-09-12T07:51:27.601Z,21.28
2022-09-12T07:53:56.323Z,21.36
2022-09-12T07:56:29.411Z,21.69
2022-09-12T07:58:57.445Z,21.93
2022-09-12T08:01:24.859Z,22.15
2022-09-12T08:03:59.936Z,22.17
2022-09-12T08:06:30.284Z,22.18
2022-09-12T08:08:59.385Z,22.30
2022-09-12T08:11:28.254Z,22.60
2022-09-12T08:13:57.569Z,22.96
2022-09-12T08:16:27.999Z,23.35
2022-09-12T08:18:55.362Z,23.33
2022-09-12T08:21:28.509Z,23.68
2022-09-12T08:24:01.162Z,24.21
2022-09-12T08:26:28.666Z,24.59
2022-09-12T08:28:56.159Z,24.74
2022-09-12T08:31:25.593Z,24.82
2022-09-12T08:33:56.346Z,24.85
2022-09-12T08:36:26.424Z,24.99
2022-09-12T08:38:59.542Z,25.00
2022-09-12T08:41:55.171Z,24.91
2022-09-12T08:44:41.055Z,24.89
2022-09-12T08:47:21.114Z,24.81
2022-09-12T08:49:52.685Z,24.86
2022-09-12T08:52:58.917Z,24.91
2022-09-12T08:55:40.785Z,24.25
2022-09-12T08:58:16.040Z,24.19
2022-09-12T09:00:55.967Z,24.30
2022-09-12T09:03:37.091Z,24.39
2022-09-12T09:06:26.909Z,24.68
2022-09-12T09:09:25.731Z,25.00
2022-09-12T09:11:59.666Z,24.71
2022-09-12T09:14:48.058Z,25.03
2022-09-12T09:17:25.350Z,25.07
2022-09-12T09:20:31.636Z,25.06
2022-09-12T09:23:17.380Z,25.34
2022-09-12T09:25:59.171Z,25.46
2022-09-12T09:28:29.747Z,25.35
2022-09-12T09:30:58.053Z,25.33
2022-09-12T09:33:30.825Z,25.22
2022-09-12T09:36:07.601Z,25.27
2022-09-12T09:38:44.263Z,25.61
2022-09-12T09:42:01.446Z,25.79
2022-09-12T09:44:30.006Z,25.96
2022-09-12T09:46:59.590Z,25.71
2022-09-12T09:49:33.599Z,25.78
2022-09-12T09:52:02.480Z,25.76
2022-09-12T09:54:54.860Z,26.02
2022-09-12T09:57:34.439Z,25.97
2022-09-12T10:00:27.527Z,25.97
2022-09-12T10:03:04.673Z,25.79
2022-09-12T10:05:35.875Z,25.58
2022-09-12T10:08:06.649Z,25.92
2022-09-12T10:10:33.990Z,25.88
2022-09-12T10:13:09.984Z,26.04
2022-09-12T10:15:38.411Z,25.95
2022-09-12T10:18:05.903Z,25.92
2022-09-12T10:20:40.747Z,26.06
2022-09-12T10:23:37.178Z,26.52
2022-09-12T10:26:08.784Z,26.76
2022-09-12T10:28:37.479Z,26.73
2022-09-12T10:31:04.970Z,26.71
2022-09-12T10:33:35.103Z,26.40
2022-09-12T10:36:02.449Z,26.56
2022-09-12T10:38:32.370Z,26.75
2022-09-12T10:41:10.497Z,26.96
2022-09-12T10:43:38.800Z,26.90
2022-09-12T10:46:14.930Z,26.00
2022-09-12T10:48:42.903Z,26.39
2022-09-12T10:51:29.051Z,26.07
2022-09-12T10:53:59.359Z,26.01
2022-09-12T10:56:33.601Z,26.33
2022-09-12T10:59:20.266Z,26.79
2022-09-12T11:01:55.696Z,26.91
2022-09-12T11:04:28.645Z,27.05
2022-09-12T11:07:06.283Z,27.03
2022-09-12T11:09:40.882Z,26.88
2022-09-12T11:12:08.046Z,26.77
2022-09-12T11:14:45.709Z,26.77
2022-09-12T11:17:13.633Z,26.76
2022-09-12T11:19:47.289Z,26.72
2022-09-12T11:22:31.931Z,26.30
2022-09-12T11:25:08.361Z,26.46
2022-09-12T11:27:46.079Z,26.63
2022-09-12T11:30:14.930Z,26.15
2022-09-12T11:32:51.121Z,25.61
2022-09-12T11:35:18.253Z,25.48
2022-09-12T11:37:45.376Z,25.41
2022-09-12T11:40:24.770Z,25.59
2022-09-12T11:42:53.762Z,25.61
2022-09-12T11:45:30.198Z,25.61
2022-09-12T11:47:59.854Z,25.31
2022-09-12T11:50:28.541Z,25.92
2022-09-12T11:52:58.817Z,26.18
2022-09-12T11:55:28.256Z,26.39
2022-09-12T11:57:55.810Z,26.62
2022-09-12T12:00:44.057Z,26.67
2022-09-12T12:03:17.386Z,26.56
2022-09-12T12:05:57.742Z,26.67
2022-09-12T12:08:25.741Z,26.79
2022-09-12T12:10:58.112Z,26.87
2022-09-12T12:13:28.261Z,26.60
2022-09-12T12:15:57.807Z,26.80
2022-09-12T12:18:29.538Z,26.70
2022-09-12T12:21:15.799Z,26.66
2022-09-12T12:24:02.177Z,26.70
2022-09-12T12:26:58.574Z,26.46
2022-09-12T12:29:32.746Z,26.36
2022-09-12T12:31:59.937Z,26.29
2022-09-12T12:34:37.210Z,26.22
2022-09-12T12:37:19.680Z,25.90
2022-09-12T12:39:53.964Z,25.92
2022-09-12T12:42:33.773Z,25.86
2022-09-12T12:45:06.768Z,25.90
2022-09-12T12:47:36.238Z,26.07
2022-09-12T12:50:03.306Z,26.23
2022-09-12T12:52:56.685Z,26.22
2022-09-12T12:55:26.233Z,26.18
2022-09-12T12:57:54.782Z,25.97
2022-09-12T13:00:24.730Z,26.09
2022-09-12T13:03:01.251Z,26.46
2022-09-12T13:05:30.675Z,26.65
2022-09-12T13:08:07.670Z,26.82
2022-09-12T13:10:34.935Z,26.88
2022-09-12T13:13:05.213Z,26.98
2022-09-12T13:15:35.380Z,26.90
2022-09-12T13:18:13.852Z,26.75
2022-09-12T13:20:53.581Z,26.90
2022-09-12T13:23:25.757Z,27.17
2022-09-12T13:25:56.833Z,27.33
2022-09-12T13:28:26.402Z,27.21
2022-09-12T13:30:59.585Z,27.02
2022-09-12T13:33:50.041Z,27.06
2022-09-12T13:36:29.408Z,27.22
2022-09-12T13:39:14.230Z,27.02
2022-09-12T13:42:00.207Z,27.34
2022-09-12T13:44:28.206Z,27.17
2022-09-12T13:46:58.193Z,27.24
2022-09-12T13:49:32.241Z,27.56
2022-09-12T13:52:14.293Z,27.30
2022-09-12T13:54:44.812Z,27.64
2022-09-12T13:57:29.345Z,27.69
2022-09-12T13:59:57.600Z,27.40
2022-09-12T14:02:26.298Z,27.45
2022-09-12T14:05:10.175Z,27.14
2022-09-12T14:07:55.172Z,26.84
2022-09-12T14:10:33.089Z,26.29
2022-09-12T14:13:02.169Z,26.58
2022-09-12T14:15:30.617Z,27.06
2022-09-12T14:18:03.222Z,27.35
2022-09-12T14:20:32.589Z,27.41
2022-09-12T14:23:02.558Z,27.10
2022-09-12T14:25:37.197Z,27.29
2022-09-12T14:28:04.820Z,27.64
2022-09-12T14:30:34.055Z,27.33
2022-09-12T14:33:03.983Z,27.23
2022-09-12T14:35:32.535Z,27.46
2022-09-12T14:38:06.460Z,27.24
2022-09-12T14:40:40.036Z,26.78
2022-09-12T14:43:17.359Z,26.91
2022-09-12T14:45:44.714Z,26.54
2022-09-12T14:48:18.681Z,26.81
2022-09-12T14:50:49.528Z,26.72
2022-09-12T14:53:16.839Z,27.09
2022-09-12T14:55:53.488Z,26.86
2022-09-12T14:58:20.574Z,27.13
2022-09-12T15:01:21.073Z,27.34
2022-09-12T15:03:51.776Z,27.51
2022-09-12T15:06:23.379Z,27.41
2022-09-12T15:08:52.280Z,27.44
2022-09-12T15:11:19.273Z,27.06
2022-09-12T15:13:46.469Z,26.69
2022-09-12T15:16:13.826Z,26.89
2022-09-12T15:18:41.262Z,26.99
2022-09-12T15:21:11.697Z,27.22
2022-09-12T15:23:42.767Z,27.07
2022-09-12T15:26:12.030Z,27.12
2022-09-12T15:28:39.113Z,27.12
2022-09-12T15:31:08.374Z,27.15
2022-09-12T15:33:35.644Z,26.82
2022-09-12T15:36:02.827Z,26.54
2022-09-12T15:38:29.974Z,26.41
2022-09-12T15:40:57.434Z,26.70
2022-09-12T15:43:26.212Z,26.67
2022-09-12T15:45:53.539Z,26.90
2022-09-12T15:48:21.228Z,26.56
2022-09-12T15:50:48.490Z,26.61
2022-09-12T15:53:16.205Z,26.75
2022-09-12T15:55:43.657Z,26.54
2022-09-12T15:58:11.165Z,26.35
2022-09-12T16:00:38.274Z,26.29
2022-09-12T16:03:05.871Z,26.10
2022-09-12T16:05:32.976Z,26.03
2022-09-12T16:08:00.126Z,25.95
2022-09-12T16:10:30.468Z,26.11
2022-09-12T16:12:57.742Z,26.11
2022-09-12T16:15:25.607Z,25.90
2022-09-12T16:17:52.975Z,25.86
2022-09-12T16:20:20.899Z,25.88
2022-09-12T16:22:48.152Z,25.96
2022-09-12T16:25:15.459Z,25.59
2022-09-12T16:27:43.313Z,25.30
2022-09-12T16:30:11.010Z,25.29
2022-09-12T16:32:38.179Z,25.34
2022-09-12T16:35:05.619Z,25.10
2022-09-12T16:37:34.571Z,24.85
2022-09-12T16:40:02.358Z,24.86
2022-09-12T16:42:29.965Z,24.76
2022-09-12T16:44:57.085Z,24.51
2022-09-12T16:47:24.177Z,24.43
2022-09-12T16:49:51.411Z,24.14
2022-09-12T16:52:19.261Z,24.21
2022-09-12T16:54:46.535Z,24.20
2022-09-12T16:57:13.935Z,24.01
2022-09-12T16:59:41.379Z,23.85
2022-09-12T17:02:13.230Z,23.57
2022-09-12T17:04:40.799Z,23.51
2022-09-12T17:07:09.026Z,23.47
2022-09-12T17:09:36.314Z,23.34
2022-09-12T17:12:04.114Z,23.34
2022-09-12T17:14:31.672Z,23.50
2022-09-12T17:16:59.110Z,23.11
2022-09-12T17:19:29.690Z,22.98
2022-09-12T17:21:58.224Z,22.79
2022-09-12T17:24:26.220Z,22.71
2022-09-12T17:26:53.821Z,22.64
2022-09-12T17:29:21.342Z,22.79
2022-09-12T17:31:48.961Z,22.84
2022-09-12T17:34:17.767Z,22.73
2022-09-12T17:36:48.209Z,22.42
2022-09-12T17:39:15.520Z,22.32
2022-09-12T17:41:42.865Z,22.34
2022-09-12T17:44:14.965Z,22.32
2022-09-12T17:46:43.112Z,22.31
2022-09-12T17:49:15.239Z,22.27
2022-09-12T17:51:43.977Z,22.26
2022-09-12T17:54:15.737Z,22.30
2022-09-12T17:56:45.491Z,22.14
2022-09-12T17:59:18.825Z,22.26
2022-09-12T18:02:18.509Z,22.19
2022-09-12T18:04:47.100Z,22.15
2022-09-12T18:07:19.167Z,22.20
2022-09-12T18:09:50.611Z,22.25
2022-09-12T18:12:20.168Z,22.30
2022-09-12T18:14:47.570Z,22.25
2022-09-12T18:17:14.863Z,22.00
2022-09-12T18:19:42.302Z,21.85
2022-09-12T18:22:11.329Z,21.81
2022-09-12T18:24:39.657Z,21.79
2022-09-12T18:27:07.387Z,21.82
2022-09-12T18:29:34.867Z,21.94
2022-09-12T18:32:02.470Z,21.90
2022-09-12T18:34:29.778Z,21.95
2022-09-12T18:36:57.121Z,22.02
2022-09-12T18:39:27.683Z,22.10
2022-09-12T18:41:55.595Z,22.16
2022-09-12T18:44:22.870Z,22.13
2022-09-12T18:46:51.354Z,22.14
2022-09-12T18:49:18.709Z,21.96
2022-09-12T18:51:46.125Z,21.83
2022-09-12T18:54:14.476Z,21.65
2022-09-12T18:56:44.047Z,21.76
2022-09-12T18:59:14.688Z,21.83
2022-09-12T19:01:42.917Z,21.80
2022-09-12T19:04:12.709Z,21.75
2022-09-12T19:06:42.862Z,21.71
2022-09-12T19:09:12.472Z,21.54
2022-09-12T19:11:48.577Z,21.43
2022-09-12T19:14:22.799Z,21.32
2022-09-12T19:16:52.023Z,21.41
2022-09-12T19:19:22.376Z,21.46
2022-09-12T19:21:51.275Z,21.32
2022-09-12T19:24:22.041Z,21.16
2022-09-12T19:26:50.513Z,20.88
2022-09-12T19:29:19.209Z,20.75
2022-09-12T19:31:49.805Z,20.78
2022-09-12T19:34:17.441Z,20.72
2022-09-12T19:36:48.691Z,20.86
2022-09-12T19:39:22.025Z,20.97
2022-09-12T19:41:59.883Z,20.96
2022-09-12T19:44:29.117Z,21.08
2022-09-12T19:46:56.616Z,21.12
2022-09-12T19:49:28.380Z,21.24
2022-09-12T19:51:56.173Z,21.25
2022-09-12T19:54:26.390Z,21.21
2022-09-12T19:56:53.896Z,21.25
2022-09-12T19:59:23.419Z,21.37
2022-09-12T20:01:53.189Z,21.51
2022-09-12T20:04:21.940Z,21.54
2022-09-12T20:06:50.464Z,21.62
2022-09-12T20:09:18.291Z,21.61
2022-09-12T20:11:45.933Z,21.59
2022-09-12T20:14:13.559Z,21.26
2022-09-12T20:16:41.187Z,21.04
2022-09-12T20:19:08.733Z,20.89
2022-09-12T20:21:37.342Z,20.75
2022-09-12T20:24:12.334Z,20.69
2022-09-12T20:26:41.182Z,20.63
2022-09-12T20:29:09.424Z,20.60
2022-09-12T20:31:40.023Z,20.61
2022-09-12T20:34:13.398Z,20.65
2022-09-12T20:36:43.455Z,20.61
2022-09-12T20:39:25.003Z,20.63
2022-09-12T20:41:52.473Z,20.68
2022-09-12T20:44:20.373Z,20.66
2022-09-12T20:46:49.378Z,20.70
2022-09-12T20:49:16.996Z,20.59
2022-09-12T20:51:44.511Z,20.64
2022-09-12T20:54:12.539Z,20.56
2022-09-12T20:56:40.753Z,20.58
2022-09-12T20:59:10.449Z,20.71
2022-09-12T21:01:38.350Z,20.76
2022-09-12T21:04:08.997Z,20.70
2022-09-12T21:06:40.299Z,20.66
2022-09-12T21:09:08.007Z,20.66
2022-09-12T21:11:35.691Z,20.55
2022-09-12T21:14:03.314Z,20.46
2022-09-12T21:16:30.800Z,20.43
2022-09-12T21:18:59.603Z,20.45
2022-09-12T21:21:27.290Z,20.35
2022-09-12T21:24:02.944Z,20.31
2022-09-12T21:26:31.116Z,20.22
2022-09-12T21:28:58.748Z,20.00
2022-09-12T21:31:26.326Z,19.94
2022-09-12T21:33:53.706Z,19.94
2022-09-12T21:36:23.764Z,19.84
2022-09-12T21:38:51.294Z,19.82
2022-09-12T21:41:18.658Z,19.78
2022-09-12T21:43:47.048Z,19.67
2022-09-12T21:46:15.845Z,19.71
2022-09-12T21:48:44.223Z,19.64
2022-09-12T21:51:13.286Z,19.68
2022-09-12T21:53:42.354Z,19.55
2022-09-12T21:56:10.341Z,19.60
2022-09-12T21:58:39.356Z,19.64
2022-09-12T22:01:09.761Z,19.58
2022-09-12T22:03:37.739Z,19.50
2022-09-12T22:06:07.132Z,19.52
2022-09-12T22:08:37.442Z,19.48
2022-09-12T22:11:09.527Z,19.31
2022-09-12T22:13:43.899Z,19.38
2022-09-12T22:16:12.506Z,19.39
2022-09-12T22:18:40.352Z,19.39
2022-09-12T22:21:14.410Z,19.40
2022-09-12T22:24:00.302Z,19.36
2022-09-12T22:26:28.534Z,19.32
2022-09-12T22:28:56.386Z,19.41
2022-09-12T22:31:24.033Z,19.48
2022-09-12T22:33:51.525Z,19.49
2022-09-12T22:36:18.952Z,19.54
2022-09-12T22:38:46.301Z,19.68
2022-09-12T22:41:13.786Z,19.48
2022-09-12T22:43:41.543Z,19.43
2022-09-12T22:46:10.414Z,19.50
2022-09-12T22:48:38.455Z,19.43
2022-09-12T22:51:06.561Z,19.42
2022-09-12T22:53:34.986Z,19.49
2022-09-12T22:56:03.626Z,19.62
2022-09-12T22:58:31.764Z,19.53
2022-09-12T23:00:59.223Z,19.45
2022-09-12T23:03:26.632Z,19.31
2022-09-12T23:05:54.140Z,19.33
2022-09-12T23:08:21.527Z,19.37
2022-09-12T23:10:48.953Z,19.32
2022-09-12T23:13:16.556Z,19.27
2022-09-12T23:15:43.851Z,19.48
2022-09-12T23:18:11.331Z,19.44
2022-09-12T23:20:39.077Z,19.21
2022-09-12T23:23:06.435Z,19.29
2022-09-12T23:25:34.443Z,19.29
2022-09-12T23:28:02.124Z,19.27
2022-09-12T23:30:29.707Z,19.27
2022-09-12T23:32:57.197Z,19.34
2022-09-12T23:35:24.530Z,19.31
2022-09-12T23:37:51.972Z,19.19
2022-09-12T23:40:19.473Z,19.26
2022-09-12T23:42:46.856Z,19.23
2022-09-12T23:45:14.363Z,19.22
2022-09-12T23:47:41.671Z,19.20
2022-09-12T23:50:09.137Z,19.17
2022-09-12T23:52:36.800Z,19.32
2022-09-12T23:55:04.349Z,19.31
2022-09-12T23:57:31.741Z,19.28
2022-09-12T23:59:59.064Z,19.22
